createdAt,value
2023-03-14T00:01:12.767Z,100.00
2023-03-14T00:03:41.095Z,100.00
2023-03-14T00:06:10.235Z,100.00
2023-03-14T00:08:38.655Z,100.00
2023-03-14T00:11:18.460Z,100.00
2023-03-14T00:13:51.021Z,100.00
2023-03-14T00:16:21.774Z,100.00
2023-03-14T00:18:49.845Z,100.00
2023-03-14T00:21:18.248Z,100.00
2023-03-14T00:23:46.275Z,100.00
2023-03-14T00:26:16.991Z,100.00
2023-03-14T00:28:45.516Z,100.00
2023-03-14T00:31:16.065Z,100.00
2023-03-14T00:33:45.749Z,100.00
2023-03-14T00:36:18.128Z,100.00
2023-03-14T00:38:48.816Z,100.00
2023-03-14T00:41:19.714Z,100.00
2023-03-14T00:43:49.299Z,100.00
2023-03-14T00:46:17.412Z,100.00
2023-03-14T00:48:47.035Z,100.00
2023-03-14T00:51:16.429Z,100.00
2023-03-14T00:53:45.211Z,100.00
2023-03-14T00:56:14.139Z,100.00
2023-03-14T00:58:41.956Z,100.00
2023-03-14T01:01:13.617Z,100.00
2023-03-14T01:03:41.663Z,100.00
2023-03-14T01:06:12.822Z,100.00
2023-03-14T01:08:41.148Z,100.00
2023-03-14T01:11:16.351Z,100.00
2023-03-14T01:13:44.237Z,100.00
2023-03-14T01:16:13.474Z,100.00
2023-03-14T01:18:44.656Z,100.00
2023-03-14T01:21:16.351Z,100.00
2023-03-14T01:23:45.612Z,100.00
2023-03-14T01:26:16.661Z,100.00
2023-03-14T01:28:44.493Z,100.00
2023-03-14T01:31:13.862Z,100.00
2023-03-14T01:33:42.149Z,100.00
2023-03-14T01:36:11.527Z,100.00
2023-03-14T01:38:41.022Z,100.00
2023-03-14T01:41:26.083Z,100.00
2023-03-14T01:43:55.346Z,100.00
2023-03-14T01:46:31.578Z,100.00
2023-03-14T01:49:15.298Z,100.00
2023-03-14T01:52:23.828Z,100.00
2023-03-14T01:55:06.850Z,100.00
2023-03-14T01:57:44.159Z,100.00
2023-03-14T02:00:18.002Z,100.00
2023-03-14T02:02:48.642Z,100.00
2023-03-14T02:05:24.078Z,100.00
2023-03-14T02:08:00.040Z,100.00
2023-03-14T02:10:38.097Z,100.00
2023-03-14T02:13:06.768Z,100.00
2023-03-14T02:15:47.150Z,100.00
2023-03-14T02:18:35.239Z,100.00
2023-03-14T02:21:20.016Z,100.00
2023-03-14T02:24:06.979Z,100.00
2023-03-14T02:27:09.428Z,100.00
2023-03-14T02:29:48.262Z,100.00
2023-03-14T02:32:18.853Z,100.00
2023-03-14T02:34:51.039Z,100.00
2023-03-14T02:37:22.857Z,100.00
2023-03-14T02:39:50.686Z,100.00
2023-03-14T02:42:19.673Z,100.00
2023-03-14T02:45:16.727Z,100.00
2023-03-14T02:47:52.753Z,100.00
2023-03-14T02:50:23.509Z,100.00
2023-03-14T02:52:51.654Z,100.00
2023-03-14T02:55:23.860Z,100.00
2023-03-14T02:57:52.474Z,100.00
2023-03-14T03:00:20.726Z,100.00
2023-03-14T03:02:48.601Z,100.00
2023-03-14T03:05:16.683Z,100.00
2023-03-14T03:07:44.533Z,100.00
2023-03-14T03:10:12.811Z,100.00
2023-03-14T03:12:40.765Z,100.00
2023-03-14T03:15:09.024Z,100.00
2023-03-14T03:17:37.751Z,100.00
2023-03-14T03:20:10.239Z,100.00
2023-03-14T03:22:40.777Z,100.00
2023-03-14T03:25:11.537Z,100.00
2023-03-14T03:27:39.563Z,100.00
2023-03-14T03:30:09.538Z,100.00
2023-03-14T03:32:37.758Z,100.00
2023-03-14T03:35:07.573Z,100.00
2023-03-14T03:37:38.378Z,100.00
2023-03-14T03:40:08.646Z,100.00
2023-03-14T03:42:37.226Z,100.00
2023-03-14T03:45:06.028Z,100.00
2023-03-14T03:47:35.605Z,100.00
2023-03-14T03:50:04.948Z,100.00
2023-03-14T03:52:33.557Z,100.00
2023-03-14T03:55:01.507Z,100.00
2023-03-14T03:57:30.147Z,100.00
2023-03-14T03:59:58.022Z,100.00
2023-03-14T04:02:25.827Z,100.00
2023-03-14T04:04:54.156Z,100.00
2023-03-14T04:07:22.087Z,100.00
2023-03-14T04:09:50.611Z,100.00
2023-03-14T04:12:47.396Z,100.00
2023-03-14T04:15:20.409Z,100.00
2023-03-14T04:17:57.011Z,100.00
2023-03-14T04:20:25.054Z,100.00
2023-03-14T04:22:53.506Z,100.00
2023-03-14T04:25:21.455Z,100.00
2023-03-14T04:27:54.174Z,100.00
2023-03-14T04:30:26.046Z,100.00
2023-03-14T04:33:03.722Z,100.00
2023-03-14T04:35:33.896Z,100.00
2023-03-14T04:38:06.428Z,100.00
2023-03-14T04:40:38.458Z,100.00
2023-03-14T04:43:09.315Z,100.00
2023-03-14T04:45:37.909Z,100.00
2023-03-14T04:48:08.818Z,100.00
2023-03-14T04:50:36.796Z,100.00
2023-03-14T04:53:04.673Z,100.00
2023-03-14T04:55:35.799Z,100.00
2023-03-14T04:58:03.828Z,100.00
2023-03-14T05:00:31.898Z,100.00
2023-03-14T05:03:10.186Z,100.00
2023-03-14T05:05:58.494Z,100.00
2023-03-14T05:08:45.997Z,100.00
2023-03-14T05:11:33.752Z,100.00
2023-03-14T05:14:16.753Z,100.00
2023-03-14T05:17:03.503Z,100.00
2023-03-14T05:20:10.200Z,100.00
2023-03-14T05:22:56.709Z,100.00
2023-03-14T05:26:03.218Z,100.00
2023-03-14T05:28:40.563Z,100.00
2023-03-14T05:31:14.724Z,100.00
2023-03-14T05:34:01.047Z,100.00
2023-03-14T05:36:58.309Z,100.00
2023-03-14T05:39:49.246Z,100.00
2023-03-14T05:42:34.411Z,100.00
2023-03-14T05:45:19.223Z,100.00
2023-03-14T05:48:03.651Z,100.00
2023-03-14T05:50:48.467Z,100.00
2023-03-14T05:53:24.601Z,100.00
2023-03-14T05:56:11.380Z,100.00
2023-03-14T05:59:08.599Z,100.00
2023-03-14T06:01:59.645Z,100.00
2023-03-14T06:04:29.090Z,100.00
2023-03-14T06:06:59.802Z,100.00
2023-03-14T06:09:27.662Z,100.00
2023-03-14T06:11:57.600Z,100.00
2023-03-14T06:14:25.684Z,100.00
2023-03-14T06:16:54.267Z,100.00
2023-03-14T06:19:23.316Z,100.00
2023-03-14T06:21:51.375Z,100.00
2023-03-14T06:24:19.311Z,100.00
2023-03-14T06:26:48.697Z,100.00
2023-03-14T06:29:16.689Z,100.00
2023-03-14T06:31:45.214Z,100.00
2023-03-14T06:34:16.244Z,100.00
2023-03-14T06:36:45.177Z,100.00
2023-03-14T06:39:13.196Z,100.00
2023-03-14T06:41:43.863Z,100.00
2023-03-14T06:44:12.071Z,100.00
2023-03-14T06:46:40.015Z,100.00
2023-03-14T06:49:07.920Z,100.00
2023-03-14T06:51:35.889Z,100.00
2023-03-14T06:54:05.365Z,100.00
2023-03-14T06:56:33.610Z,100.00
2023-03-14T06:59:01.804Z,100.00
2023-03-14T07:01:33.852Z,100.00
2023-03-14T07:04:10.610Z,100.00
2023-03-14T07:06:45.297Z,100.00
2023-03-14T07:09:13.539Z,100.00
2023-03-14T07:11:44.743Z,100.00
2023-03-14T07:14:13.222Z,100.00
2023-03-14T07:16:41.064Z,100.00
2023-03-14T07:19:09.049Z,100.00
2023-03-14T07:21:37.690Z,100.00
2023-03-14T07:24:08.903Z,100.00
2023-03-14T07:26:36.934Z,100.00
2023-03-14T07:29:04.921Z,100.00
2023-03-14T07:31:33.202Z,100.00
2023-03-14T07:34:01.443Z,100.00
2023-03-14T07:36:33.318Z,100.00
2023-03-14T07:39:01.215Z,100.00
2023-03-14T07:41:41.736Z,100.00
2023-03-14T07:44:41.842Z,100.00
2023-03-14T07:47:10.474Z,100.00
2023-03-14T07:49:38.799Z,100.00
2023-03-14T07:52:06.830Z,100.00
2023-03-14T07:54:34.673Z,100.00
2023-03-14T07:57:02.858Z,100.00
2023-03-14T07:59:31.319Z,100.00
2023-03-14T08:01:59.776Z,100.00
2023-03-14T08:04:28.504Z,100.00
2023-03-14T08:06:56.307Z,100.00
2023-03-14T08:09:24.332Z,100.00
2023-03-14T08:11:52.126Z,100.00
2023-03-14T08:14:20.028Z,100.00
2023-03-14T08:16:48.151Z,100.00
2023-03-14T08:19:15.965Z,100.00
2023-03-14T08:21:44.410Z,100.00
2023-03-14T08:24:12.281Z,100.00
2023-03-14T08:26:40.282Z,100.00
2023-03-14T08:29:09.181Z,100.00
2023-03-14T08:31:37.066Z,99.36
2023-03-14T08:34:05.200Z,100.00
2023-03-14T08:36:33.631Z,99.30
2023-03-14T08:39:01.590Z,98.60
2023-03-14T08:41:29.649Z,98.43
2023-03-14T08:43:57.621Z,96.14
2023-03-14T08:46:25.600Z,96.05
2023-03-14T08:48:53.394Z,95.57
2023-03-14T08:51:21.267Z,94.89
2023-03-14T08:53:49.072Z,95.39
2023-03-14T08:56:16.911Z,93.72
2023-03-14T08:58:45.046Z,92.41
2023-03-14T09:01:13.265Z,92.39
2023-03-14T09:03:41.162Z,92.31
2023-03-14T09:06:10.973Z,92.15
2023-03-14T09:08:39.682Z,91.28
2023-03-14T09:11:09.686Z,91.12
2023-03-14T09:13:37.778Z,91.30
2023-03-14T09:16:07.408Z,92.37
2023-03-14T09:18:35.715Z,91.81
2023-03-14T09:21:04.043Z,89.98
2023-03-14T09:23:32.381Z,90.22
2023-03-14T09:26:01.244Z,89.33
2023-03-14T09:28:29.699Z,89.28
2023-03-14T09:30:57.591Z,89.94
2023-03-14T09:33:25.552Z,90.03
2023-03-14T09:35:53.505Z,90.20
2023-03-14T09:38:21.901Z,90.47
2023-03-14T09:40:50.676Z,90.67
2023-03-14T09:43:18.686Z,90.35
2023-03-14T09:45:49.597Z,89.63
2023-03-14T09:48:22.260Z,89.60
2023-03-14T09:50:53.749Z,89.07
2023-03-14T09:53:27.124Z,89.42
2023-03-14T09:55:56.369Z,89.55
2023-03-14T09:58:25.608Z,89.07
2023-03-14T10:00:57.511Z,88.77
2023-03-14T10:03:30.610Z,88.42
2023-03-14T10:05:58.484Z,87.93
2023-03-14T10:08:27.470Z,87.43
2023-03-14T10:10:55.748Z,86.56
2023-03-14T10:13:30.419Z,86.92
2023-03-14T10:16:05.262Z,86.91
2023-03-14T10:18:36.861Z,86.46
2023-03-14T10:21:17.833Z,86.04
2023-03-14T10:23:47.997Z,85.49
2023-03-14T10:26:29.021Z,86.03
2023-03-14T10:29:14.053Z,85.55
2023-03-14T10:31:53.277Z,84.63
2023-03-14T10:34:30.721Z,84.37
2023-03-14T10:37:06.673Z,84.39
2023-03-14T10:39:40.228Z,83.47
2023-03-14T10:42:14.669Z,82.49
2023-03-14T10:44:43.253Z,83.92
2023-03-14T10:47:21.535Z,83.83
2023-03-14T10:49:49.700Z,83.74
2023-03-14T10:52:57.406Z,82.89
2023-03-14T10:55:17.933Z,83.94
2023-03-14T10:57:45.915Z,84.22
2023-03-14T11:00:23.128Z,84.84
2023-03-14T11:02:54.070Z,84.90
2023-03-14T11:05:41.056Z,85.15
2023-03-14T11:08:30.585Z,85.22
2023-03-14T11:11:23.167Z,85.07
2023-03-14T11:14:08.640Z,85.10
2023-03-14T11:16:59.789Z,85.64
2023-03-14T11:19:39.415Z,85.55
2023-03-14T11:22:40.448Z,86.13
2023-03-14T11:25:27.351Z,86.17
2023-03-14T11:28:08.915Z,86.24
2023-03-14T11:30:47.474Z,86.45
2023-03-14T11:33:26.184Z,86.61
2023-03-14T11:36:12.946Z,86.12
2023-03-14T11:38:53.817Z,86.07
2023-03-14T11:41:27.062Z,85.43
2023-03-14T11:43:57.987Z,85.48
2023-03-14T11:46:27.929Z,85.61
2023-03-14T11:49:23.309Z,85.38
2023-03-14T11:51:53.168Z,84.72
2023-03-14T11:54:36.468Z,85.24
2023-03-14T11:57:06.944Z,85.50
2023-03-14T12:00:13.783Z,85.13
2023-03-14T12:02:41.634Z,85.45
2023-03-14T12:05:43.632Z,83.95
2023-03-14T12:08:17.321Z,84.26
2023-03-14T12:10:48.122Z,83.52
2023-03-14T12:13:17.833Z,83.24
2023-03-14T12:16:00.784Z,82.29
2023-03-14T12:18:40.555Z,76.23
2023-03-14T12:21:12.176Z,71.77
2023-03-14T12:23:52.700Z,70.42
2023-03-14T12:26:44.256Z,71.13
2023-03-14T12:29:19.093Z,68.58
2023-03-14T12:31:50.002Z,68.63
2023-03-14T12:34:17.938Z,68.39
2023-03-14T12:36:55.400Z,66.93
2023-03-14T12:39:38.890Z,65.83
2023-03-14T12:42:11.711Z,66.25
2023-03-14T12:44:50.316Z,65.89
2023-03-14T12:47:21.049Z,65.63
2023-03-14T12:49:58.310Z,65.81
2023-03-14T12:52:44.663Z,64.88
2023-03-14T12:55:37.290Z,63.56
2023-03-14T12:58:39.888Z,65.39
2023-03-14T13:01:15.878Z,64.76
2023-03-14T13:03:46.564Z,62.78
2023-03-14T13:06:55.062Z,63.33
2023-03-14T13:09:28.796Z,63.26
2023-03-14T13:12:02.876Z,64.22
2023-03-14T13:14:32.361Z,64.76
2023-03-14T13:17:10.429Z,65.38
2023-03-14T13:19:57.355Z,66.63
2023-03-14T13:22:29.896Z,67.54
2023-03-14T13:25:03.293Z,68.27
2023-03-14T13:27:34.217Z,68.98
2023-03-14T13:30:16.794Z,69.25
2023-03-14T13:32:48.777Z,69.91
2023-03-14T13:35:46.147Z,70.48
2023-03-14T13:38:19.306Z,70.71
2023-03-14T13:40:48.511Z,70.90
2023-03-14T13:43:16.391Z,71.19
2023-03-14T13:45:50.454Z,71.52
2023-03-14T13:48:19.561Z,71.65
2023-03-14T13:50:53.292Z,71.68
2023-03-14T13:53:21.410Z,71.89
2023-03-14T13:55:51.376Z,71.96
2023-03-14T13:58:31.546Z,72.24
2023-03-14T14:01:12.698Z,71.47
2023-03-14T14:03:42.893Z,71.35
2023-03-14T14:06:28.284Z,71.10
2023-03-14T14:08:58.623Z,70.45
2023-03-14T14:11:48.917Z,69.80
2023-03-14T14:14:32.559Z,69.89
2023-03-14T14:17:02.714Z,70.23
2023-03-14T14:19:34.219Z,69.62
2023-03-14T14:22:03.879Z,70.51
2023-03-14T14:24:33.591Z,70.65
2023-03-14T14:27:09.532Z,70.22
2023-03-14T14:29:37.286Z,70.02
2023-03-14T14:32:08.113Z,72.01
2023-03-14T14:34:50.865Z,73.79
2023-03-14T14:37:28.668Z,74.43
2023-03-14T14:39:59.963Z,75.51
2023-03-14T14:42:32.764Z,76.29
2023-03-14T14:45:04.040Z,76.30
2023-03-14T14:47:32.129Z,76.67
2023-03-14T14:50:04.474Z,76.91
2023-03-14T14:52:39.210Z,77.26
2023-03-14T14:55:20.726Z,77.72
2023-03-14T14:57:57.689Z,78.04
2023-03-14T15:00:28.109Z,78.48
2023-03-14T15:03:00.019Z,78.80
2023-03-14T15:05:31.378Z,79.27
2023-03-14T15:07:59.236Z,79.91
2023-03-14T15:10:27.404Z,79.92
2023-03-14T15:12:55.780Z,80.16
2023-03-14T15:15:23.586Z,80.43
2023-03-14T15:17:51.506Z,80.47
2023-03-14T15:20:20.596Z,80.98
2023-03-14T15:22:48.550Z,80.56
2023-03-14T15:25:39.926Z,80.12
2023-03-14T15:28:04.814Z,80.23
2023-03-14T15:30:32.765Z,79.98
2023-03-14T15:33:00.713Z,79.93
2023-03-14T15:35:28.625Z,79.33
2023-03-14T15:37:56.485Z,79.46
2023-03-14T15:40:25.704Z,79.46
2023-03-14T15:42:53.554Z,79.40
2023-03-14T15:45:21.414Z,79.12
2023-03-14T15:47:49.329Z,79.09
2023-03-14T15:50:17.413Z,79.10
2023-03-14T15:52:45.219Z,78.52
2023-03-14T15:55:13.201Z,78.39
2023-03-14T15:57:43.968Z,78.86
2023-03-14T16:00:19.565Z,78.88
2023-03-14T16:02:47.360Z,79.09
2023-03-14T16:05:16.839Z,78.91
2023-03-14T16:07:45.007Z,79.14
2023-03-14T16:10:14.476Z,79.28
2023-03-14T16:12:43.181Z,79.45
2023-03-14T16:15:11.324Z,79.82
2023-03-14T16:17:41.247Z,79.95
2023-03-14T16:20:09.709Z,79.95
2023-03-14T16:22:37.595Z,80.04
2023-03-14T16:25:07.330Z,80.39
2023-03-14T16:27:35.310Z,80.71
2023-03-14T16:30:04.379Z,80.90
2023-03-14T16:32:32.437Z,80.97
2023-03-14T16:35:00.459Z,80.99
2023-03-14T16:37:28.473Z,81.11
2023-03-14T16:40:11.576Z,81.22
2023-03-14T16:42:59.705Z,81.39
2023-03-14T16:45:28.930Z,81.52
2023-03-14T16:47:56.884Z,81.68
2023-03-14T16:50:24.779Z,81.75
2023-03-14T16:52:52.740Z,82.17
2023-03-14T16:55:20.865Z,82.44
2023-03-14T16:57:48.846Z,82.71
2023-03-14T17:00:17.221Z,82.95
2023-03-14T17:02:45.145Z,83.28
2023-03-14T17:05:13.132Z,83.35
2023-03-14T17:07:41.572Z,83.55
2023-03-14T17:10:11.370Z,83.68
2023-03-14T17:12:39.171Z,83.94
2023-03-14T17:15:08.003Z,84.43
2023-03-14T17:17:35.993Z,84.63
2023-03-14T17:20:05.958Z,85.10
2023-03-14T17:22:34.059Z,85.81
2023-03-14T17:25:02.521Z,87.32
2023-03-14T17:27:30.578Z,89.86
2023-03-14T17:29:58.366Z,89.04
2023-03-14T17:32:26.833Z,90.25
2023-03-14T17:34:54.839Z,92.21
2023-03-14T17:37:22.921Z,94.38
2023-03-14T17:39:50.816Z,98.94
2023-03-14T17:42:18.928Z,99.76
2023-03-14T17:44:46.780Z,100.00
2023-03-14T17:47:14.593Z,100.00
2023-03-14T17:49:42.623Z,100.00
2023-03-14T17:52:12.906Z,100.00
2023-03-14T17:54:41.127Z,100.00
2023-03-14T17:57:09.326Z,100.00
2023-03-14T17:59:37.149Z,100.00
2023-03-14T18:02:05.426Z,100.00
2023-03-14T18:04:33.520Z,100.00
2023-03-14T18:07:01.732Z,100.00
2023-03-14T18:09:29.538Z,100.00
2023-03-14T18:12:07.155Z,100.00
2023-03-14T18:14:37.286Z,100.00
2023-03-14T18:17:06.193Z,100.00
2023-03-14T18:19:34.411Z,100.00
2023-03-14T18:22:02.221Z,100.00
2023-03-14T18:24:30.482Z,100.00
2023-03-14T18:26:58.384Z,100.00
2023-03-14T18:29:26.356Z,100.00
2023-03-14T18:31:56.949Z,100.00
2023-03-14T18:34:25.708Z,100.00
2023-03-14T18:36:54.018Z,100.00
2023-03-14T18:39:22.288Z,100.00
2023-03-14T18:41:50.774Z,100.00
2023-03-14T18:44:18.998Z,100.00
2023-03-14T18:46:48.749Z,100.00
2023-03-14T18:49:16.766Z,100.00
2023-03-14T18:51:44.917Z,100.00
2023-03-14T18:54:13.061Z,100.00
2023-03-14T18:56:41.560Z,100.00
2023-03-14T18:59:10.617Z,100.00
2023-03-14T19:01:39.380Z,100.00
2023-03-14T19:04:09.510Z,100.00
2023-03-14T19:06:38.770Z,100.00
2023-03-14T19:09:07.007Z,100.00
2023-03-14T19:11:34.861Z,100.00
2023-03-14T19:14:03.934Z,100.00
2023-03-14T19:16:32.435Z,100.00
2023-03-14T19:19:00.990Z,100.00
2023-03-14T19:21:31.715Z,100.00
2023-03-14T19:23:59.942Z,100.00
2023-03-14T19:26:30.159Z,100.00
2023-03-14T19:28:59.087Z,100.00
2023-03-14T19:31:27.790Z,100.00
2023-03-14T19:33:55.662Z,100.00
2023-03-14T19:36:26.873Z,100.00
2023-03-14T19:38:55.226Z,100.00
2023-03-14T19:41:25.440Z,100.00
2023-03-14T19:43:53.457Z,100.00
2023-03-14T19:46:22.876Z,100.00
2023-03-14T19:48:54.512Z,100.00
2023-03-14T19:51:23.116Z,100.00
2023-03-14T19:53:51.809Z,100.00
2023-03-14T19:56:21.023Z,100.00
2023-03-14T19:58:49.305Z,100.00
2023-03-14T20:01:17.169Z,100.00
2023-03-14T20:03:45.126Z,100.00
2023-03-14T20:06:13.271Z,100.00
2023-03-14T20:08:43.178Z,100.00
2023-03-14T20:11:11.223Z,100.00
2023-03-14T20:13:39.454Z,100.00
2023-03-14T20:16:10.732Z,100.00
2023-03-14T20:18:39.758Z,100.00
2023-03-14T20:21:12.938Z,100.00
2023-03-14T20:23:44.108Z,100.00
2023-03-14T20:26:12.262Z,100.00
2023-03-14T20:28:42.780Z,100.00
2023-03-14T20:31:10.847Z,100.00
2023-03-14T20:33:38.921Z,100.00
2023-03-14T20:36:07.865Z,100.00
2023-03-14T20:38:36.844Z,100.00
2023-03-14T20:41:05.624Z,100.00
2023-03-14T20:43:34.096Z,100.00
2023-03-14T20:46:02.757Z,100.00
2023-03-14T20:48:31.636Z,100.00
2023-03-14T20:51:01.620Z,100.00
2023-03-14T20:53:29.515Z,100.00
2023-03-14T20:55:58.296Z,100.00
2023-03-14T20:58:26.283Z,100.00
2023-03-14T21:00:55.747Z,100.00
2023-03-14T21:03:24.703Z,100.00
2023-03-14T21:05:52.913Z,100.00
2023-03-14T21:08:23.852Z,100.00
2023-03-14T21:10:54.541Z,100.00
2023-03-14T21:13:24.250Z,100.00
2023-03-14T21:15:52.552Z,100.00
2023-03-14T21:18:23.037Z,100.00
2023-03-14T21:20:53.408Z,100.00
2023-03-14T21:23:26.386Z,100.00
2023-03-14T21:25:56.676Z,100.00
2023-03-14T21:28:25.138Z,100.00
2023-03-14T21:30:53.447Z,100.00
2023-03-14T21:33:21.373Z,100.00
2023-03-14T21:35:49.180Z,100.00
2023-03-14T21:38:16.923Z,100.00
2023-03-14T21:40:49.940Z,100.00
2023-03-14T21:43:21.830Z,100.00
2023-03-14T21:45:50.143Z,100.00
2023-03-14T21:48:18.499Z,100.00
2023-03-14T21:50:47.051Z,100.00
2023-03-14T21:53:15.398Z,100.00
2023-03-14T21:55:44.613Z,100.00
2023-03-14T21:58:16.067Z,100.00
2023-03-14T22:00:51.196Z,100.00
2023-03-14T22:03:24.339Z,100.00
2023-03-14T22:05:52.200Z,100.00
2023-03-14T22:08:20.636Z,100.00
2023-03-14T22:10:53.428Z,100.00
2023-03-14T22:13:23.736Z,100.00
2023-03-14T22:15:52.499Z,100.00
2023-03-14T22:18:20.338Z,100.00
2023-03-14T22:20:48.116Z,100.00
2023-03-14T22:23:16.012Z,100.00
2023-03-14T22:25:47.566Z,100.00
2023-03-14T22:28:15.709Z,100.00
2023-03-14T22:30:46.903Z,100.00
2023-03-14T22:33:15.502Z,100.00
2023-03-14T22:35:50.647Z,100.00
2023-03-14T22:38:19.209Z,100.00
2023-03-14T22:40:48.098Z,100.00
2023-03-14T22:43:16.517Z,100.00
2023-03-14T22:45:45.027Z,100.00
2023-03-14T22:48:13.018Z,100.00
2023-03-14T22:50:40.868Z,100.00
2023-03-14T22:53:08.735Z,100.00
2023-03-14T22:55:36.538Z,100.00
2023-03-14T22:58:04.386Z,100.00
2023-03-14T23:00:33.076Z,100.00
2023-03-14T23:03:01.135Z,100.00
2023-03-14T23:05:29.007Z,100.00
2023-03-14T23:07:56.809Z,100.00
2023-03-14T23:10:24.577Z,100.00
2023-03-14T23:12:54.257Z,100.00
2023-03-14T23:15:22.050Z,100.00
2023-03-14T23:17:49.796Z,100.00
2023-03-14T23:20:17.650Z,100.00
2023-03-14T23:22:46.061Z,100.00
2023-03-14T23:25:13.941Z,100.00
2023-03-14T23:27:46.334Z,100.00
2023-03-14T23:30:16.070Z,100.00
2023-03-14T23:32:43.886Z,100.00
2023-03-14T23:35:12.669Z,100.00
2023-03-14T23:37:41.285Z,100.00
2023-03-14T23:40:10.261Z,100.00
2023-03-14T23:42:38.837Z,100.00
2023-03-14T23:45:07.479Z,100.00
2023-03-14T23:47:35.351Z,100.00
2023-03-14T23:50:03.215Z,100.00
2023-03-14T23:52:30.954Z,100.00
2023-03-14T23:54:58.747Z,100.00
2023-03-14T23:57:26.489Z,100.00
2023-03-14T23:59:54.297Z,100.00
